createdAt,value
2018-01-18T16:40:34.560Z,6.61
2018-01-18T16:41:34.220Z,6.59
2018-01-18T16:42:34.198Z,6.48
2018-01-18T16:43:34.182Z,6.47
2018-01-18T16:44:34.153Z,6.43
2018-01-18T16:45:34.442Z,6.33
2018-01-18T16:46:34.363Z,6.29
2018-01-18T16:47:34.365Z,6.30
2018-01-18T16:48:34.055Z,6.22
2018-01-18T16:49:34.074Z,6.22
2018-01-18T16:50:34.009Z,6.13
2018-01-18T16:51:42.897Z,6.19
2018-01-18T16:53:27.433Z,6.14
2018-01-18T16:54:27.319Z,6.18
2018-01-18T16:55:27.304Z,6.16
2018-01-18T16:56:27.322Z,6.18
2018-01-18T16:57:27.312Z,6.16
2018-01-18T16:58:27.614Z,6.25
2018-01-18T16:59:27.534Z,6.29
2018-01-18T17:00:27.201Z,6.30
2018-01-18T17:01:27.172Z,6.33
2018-01-18T17:02:27.155Z,6.36
2018-01-18T17:03:27.135Z,6.40
2018-01-18T17:04:27.126Z,6.30
2018-01-18T17:05:27.104Z,6.30
2018-01-18T17:06:27.085Z,6.32
2018-01-18T17:07:27.072Z,6.21
2018-01-18T17:08:27.033Z,6.25
2018-01-18T17:09:27.037Z,6.16
2018-01-18T17:10:27.014Z,6.18
2018-01-18T17:11:26.989Z,6.22
2018-01-18T17:12:26.987Z,6.22
2018-01-18T17:13:26.954Z,6.22
2018-01-18T17:14:26.931Z,6.18
2018-01-18T17:15:26.925Z,6.18
2018-01-18T17:16:26.903Z,6.26
2018-01-18T17:17:26.883Z,6.18
2018-01-18T17:18:26.855Z,6.19
2018-01-18T17:19:26.834Z,6.18
2018-01-18T17:20:26.815Z,6.19
2018-01-18T17:21:26.806Z,6.21
2018-01-18T17:22:26.788Z,6.30
2018-01-18T17:23:26.765Z,6.21
2018-01-18T17:24:26.742Z,6.16
2018-01-18T17:25:26.722Z,6.14
2018-01-18T17:26:26.719Z,6.18
2018-01-18T17:27:26.681Z,6.03
2018-01-18T17:28:26.665Z,6.01
2018-01-18T17:29:26.655Z,6.09
2018-01-18T17:30:26.628Z,6.07
2018-01-18T17:31:26.606Z,6.06
2018-01-18T17:32:26.593Z,6.01
2018-01-18T17:33:26.580Z,6.01
2018-01-18T17:34:26.555Z,6.03
2018-01-18T17:35:26.532Z,6.01
2018-01-18T17:36:26.513Z,6.09
2018-01-18T17:37:26.500Z,6.10
2018-01-18T17:38:26.488Z,6.06
2018-01-18T17:39:26.466Z,6.07
2018-01-18T17:40:26.439Z,6.03
2018-01-18T17:41:26.430Z,5.96
2018-01-18T17:42:26.398Z,5.92
2018-01-18T17:43:26.379Z,5.98
2018-01-18T17:44:26.382Z,5.93
2018-01-18T17:45:26.341Z,5.88
2018-01-18T17:46:27.922Z,5.77
2018-01-18T17:47:26.299Z,5.81
2018-01-18T17:48:26.287Z,5.71
2018-01-18T17:49:26.270Z,5.64
2018-01-18T17:50:26.247Z,5.71
2018-01-18T17:51:26.223Z,5.71
2018-01-18T17:52:26.214Z,5.70
2018-01-18T17:53:26.192Z,5.74
2018-01-18T17:54:26.174Z,5.78
2018-01-18T17:55:26.162Z,5.74
2018-01-18T17:56:26.133Z,5.70
2018-01-18T17:57:26.123Z,5.71
2018-01-18T17:58:26.091Z,5.70
2018-01-18T17:59:26.082Z,5.68
2018-01-18T18:00:26.051Z,5.66
2018-01-18T18:01:26.047Z,5.71
2018-01-18T18:02:26.012Z,5.64
2018-01-18T18:03:25.996Z,5.70
2018-01-18T18:04:25.990Z,5.64
2018-01-18T18:05:25.974Z,5.70
2018-01-18T18:06:25.951Z,5.71
2018-01-18T18:07:25.920Z,5.73
2018-01-18T18:08:25.903Z,5.77
2018-01-18T18:09:25.889Z,5.68
2018-01-18T18:10:25.875Z,5.78
2018-01-18T18:11:25.853Z,5.71
2018-01-18T18:12:25.824Z,5.64
2018-01-18T18:13:25.806Z,5.67
2018-01-18T18:14:25.786Z,5.67
2018-01-18T18:15:25.770Z,5.73
2018-01-18T18:16:25.771Z,5.66
2018-01-18T18:17:25.732Z,5.60
2018-01-18T18:18:25.712Z,5.50
2018-01-18T18:19:25.693Z,5.37
2018-01-18T18:20:25.678Z,5.37
2018-01-18T18:21:25.665Z,5.31
2018-01-18T18:22:25.637Z,5.22
2018-01-18T18:23:25.621Z,5.20
2018-01-18T18:24:25.593Z,5.16
2018-01-18T18:25:25.583Z,5.12
2018-01-18T18:26:25.558Z,5.02
2018-01-18T18:27:25.542Z,4.96
2018-01-18T18:28:25.542Z,4.89
2018-01-18T18:29:25.503Z,4.83
2018-01-18T18:30:25.490Z,4.79
2018-01-18T18:31:25.464Z,4.69
2018-01-18T18:32:25.440Z,4.69
2018-01-18T18:33:25.430Z,4.62
2018-01-18T18:34:25.398Z,4.59
2018-01-18T18:35:25.399Z,4.52
2018-01-18T18:36:25.386Z,4.47
2018-01-18T18:37:25.357Z,4.59
2018-01-18T18:38:25.322Z,4.51
2018-01-18T18:39:25.312Z,4.46
2018-01-18T18:40:25.292Z,4.33
2018-01-18T18:41:25.277Z,4.16
2018-01-18T18:42:25.255Z,4.19
2018-01-18T18:43:25.232Z,4.12
2018-01-18T18:44:25.226Z,4.25
2018-01-18T18:45:25.202Z,4.21
2018-01-18T18:46:25.180Z,4.19
2018-01-18T18:47:25.151Z,4.16
2018-01-18T18:48:25.135Z,4.12
2018-01-18T18:49:25.120Z,4.08
2018-01-18T18:50:25.107Z,4.01
2018-01-18T18:51:25.078Z,4.03
2018-01-18T18:52:25.055Z,4.07
2018-01-18T18:53:25.039Z,3.92
2018-01-18T18:54:25.020Z,3.94
2018-01-18T18:55:25.010Z,3.96
2018-01-18T18:56:24.981Z,4.01
2018-01-18T18:57:24.962Z,4.03
2018-01-18T18:58:24.952Z,4.06
2018-01-18T18:59:24.923Z,3.98
2018-01-18T19:00:24.904Z,4.00
2018-01-18T19:01:24.881Z,4.16
2018-01-18T19:02:24.865Z,4.19
2018-01-18T19:04:46.215Z,4.52
2018-01-18T19:05:45.901Z,4.51
2018-01-18T19:06:46.158Z,4.72
2018-01-18T19:07:46.085Z,4.70
2018-01-18T19:08:45.810Z,4.80
2018-01-18T19:09:45.758Z,4.84
2018-01-18T19:10:45.733Z,4.94
2018-01-18T19:11:45.691Z,4.99
2018-01-18T19:12:45.704Z,5.01
2018-01-18T19:13:45.691Z,5.02
2018-01-18T19:14:45.891Z,5.09
2018-01-18T19:15:45.945Z,5.17
2018-01-18T19:16:45.942Z,5.27
2018-01-18T19:17:45.945Z,5.31
2018-01-18T19:18:45.910Z,5.40
2018-01-18T19:19:45.570Z,5.35
2018-01-18T19:20:45.528Z,5.46
2018-01-18T19:21:55.195Z,5.35
2018-01-18T19:23:38.932Z,5.49
2018-01-18T19:24:38.855Z,5.59
2018-01-18T19:25:38.807Z,5.56
2018-01-18T19:26:38.796Z,5.55
2018-01-18T19:27:38.797Z,5.59
2018-01-18T19:28:38.771Z,5.56
2018-01-18T19:29:39.006Z,5.70
2018-01-18T19:30:38.967Z,5.60
2018-01-18T19:31:39.015Z,5.74
2018-01-18T19:32:39.005Z,5.68
2018-01-18T19:33:38.890Z,5.70
2018-01-18T19:34:38.932Z,5.74
2018-01-18T19:35:38.628Z,5.78
2018-01-18T19:36:38.597Z,5.77
2018-01-18T19:37:38.562Z,5.71
2018-01-18T19:38:38.565Z,5.63
2018-01-18T19:39:38.536Z,5.66
2018-01-18T19:40:38.530Z,5.75
2018-01-18T19:41:38.501Z,5.73
2018-01-18T19:42:38.472Z,5.71
2018-01-18T19:43:38.459Z,5.74
2018-01-18T19:44:38.434Z,5.75
2018-01-18T19:45:38.412Z,5.68
2018-01-18T19:46:38.412Z,5.74
2018-01-18T19:47:38.373Z,5.74
2018-01-18T19:48:38.350Z,5.74
2018-01-18T19:49:38.345Z,5.68
2018-01-18T19:50:38.354Z,5.74
2018-01-18T19:51:38.309Z,5.73
2018-01-18T19:52:38.309Z,5.82
2018-01-18T19:53:38.254Z,5.73
2018-01-18T19:54:38.274Z,5.75
2018-01-18T19:55:38.219Z,5.66
2018-01-18T19:56:38.207Z,5.67
2018-01-18T19:57:38.189Z,5.70
2018-01-18T19:58:38.169Z,5.71
2018-01-18T19:59:38.147Z,5.74
2018-01-18T20:00:38.130Z,5.71
2018-01-18T20:01:38.162Z,5.66
2018-01-18T20:02:47.109Z,5.67
2018-01-18T20:04:31.779Z,5.70
2018-01-18T20:05:31.726Z,5.66
2018-01-18T20:06:31.709Z,5.55
2018-01-18T20:07:31.680Z,5.64
2018-01-18T20:08:31.612Z,5.60
2018-01-18T20:09:31.625Z,5.67
2018-01-18T20:10:31.684Z,5.67
2018-01-18T20:11:31.321Z,5.71
2018-01-18T20:12:31.295Z,5.73
2018-01-18T20:13:31.289Z,5.78
2018-01-18T20:14:31.297Z,5.75
2018-01-18T20:15:31.524Z,5.63
2018-01-18T20:16:31.531Z,5.73
2018-01-18T20:17:31.526Z,5.73
2018-01-18T20:18:31.189Z,5.74
2018-01-18T20:19:31.422Z,5.68
2018-01-18T20:20:31.435Z,5.85
2018-01-18T20:21:31.474Z,5.83
2018-01-18T20:22:31.456Z,5.85
2018-01-18T20:23:31.453Z,5.83
2018-01-18T20:24:31.856Z,5.85
2018-01-18T20:25:31.374Z,5.86
2018-01-18T20:26:31.323Z,5.86
2018-01-18T20:27:31.361Z,5.91
2018-01-18T20:28:31.320Z,5.83
2018-01-18T20:29:31.292Z,5.85
2018-01-18T20:30:31.344Z,5.83
2018-01-18T20:31:31.300Z,5.75
2018-01-18T20:32:30.917Z,5.77
2018-01-18T20:33:31.284Z,5.81
2018-01-18T20:34:31.240Z,5.85
2018-01-18T20:35:31.239Z,5.83
2018-01-18T20:36:31.227Z,5.81
2018-01-18T20:37:31.150Z,5.82
2018-01-18T20:38:31.106Z,5.86
2018-01-18T20:39:30.768Z,5.81
2018-01-18T20:40:30.739Z,5.82
2018-01-18T20:41:30.739Z,5.74
2018-01-18T20:42:30.706Z,5.83
2018-01-18T20:43:30.675Z,5.70
2018-01-18T20:44:30.678Z,5.77
2018-01-18T20:45:30.646Z,5.75
2018-01-18T20:46:30.659Z,5.73
2018-01-18T20:47:30.608Z,5.70
2018-01-18T20:48:30.602Z,5.73
2018-01-18T20:49:30.557Z,5.71
2018-01-18T20:50:30.545Z,5.77
2018-01-18T20:51:30.522Z,5.78
2018-01-18T20:52:30.519Z,5.77
2018-01-18T20:53:30.487Z,5.71
2018-01-18T20:54:30.465Z,5.78
2018-01-18T20:55:30.452Z,5.78
2018-01-18T20:56:30.428Z,5.73
2018-01-18T20:57:30.421Z,5.73
2018-01-18T20:58:30.748Z,5.66
2018-01-18T20:59:30.377Z,5.77
2018-01-18T21:00:30.354Z,5.68
2018-01-18T21:01:30.325Z,5.60
2018-01-18T21:02:39.973Z,5.63
2018-01-18T21:04:23.788Z,5.53
2018-01-18T21:05:23.663Z,5.52
2018-01-18T21:06:23.653Z,5.38
2018-01-18T21:07:23.906Z,5.37
2018-01-18T21:08:23.909Z,5.34
2018-01-18T21:09:23.944Z,5.38
2018-01-18T21:10:23.877Z,5.31
2018-01-18T21:11:23.880Z,5.28
2018-01-18T21:12:23.877Z,5.27
2018-01-18T21:13:23.778Z,5.17
2018-01-18T21:14:23.765Z,5.40
2018-01-18T21:15:23.803Z,5.45
2018-01-18T21:16:23.726Z,5.41
2018-01-18T21:17:23.756Z,5.40
2018-01-18T21:18:23.395Z,5.50
2018-01-18T21:19:23.386Z,5.50
2018-01-18T21:20:23.351Z,5.55
2018-01-18T21:21:23.347Z,5.60
2018-01-18T21:22:23.319Z,5.60
2018-01-18T21:23:23.301Z,5.59
2018-01-18T21:24:23.316Z,5.66
2018-01-18T21:25:23.277Z,5.67
2018-01-18T21:26:23.240Z,5.63
2018-01-18T21:27:23.209Z,5.66
2018-01-18T21:28:23.220Z,5.74
2018-01-18T21:29:23.189Z,5.59
2018-01-18T21:30:23.173Z,5.56
2018-01-18T21:31:23.138Z,5.60
2018-01-18T21:32:23.119Z,5.66
2018-01-18T21:33:23.128Z,5.56
2018-01-18T21:34:23.084Z,5.55
2018-01-18T21:35:23.062Z,5.56
2018-01-18T21:36:23.037Z,5.60
2018-01-18T21:37:23.027Z,5.60
2018-01-18T21:38:22.999Z,5.55
2018-01-18T21:39:23.005Z,5.52
2018-01-18T21:40:22.977Z,5.50
2018-01-18T21:41:22.941Z,5.50
2018-01-18T21:42:22.947Z,5.41
2018-01-18T21:43:22.922Z,5.43
2018-01-18T21:44:22.899Z,5.52
2018-01-18T21:45:22.874Z,5.59
2018-01-18T21:46:22.880Z,5.43
2018-01-18T21:47:22.841Z,5.50
2018-01-18T21:48:22.815Z,5.41
2018-01-18T21:49:22.793Z,5.45
2018-01-18T21:50:22.777Z,5.56
2018-01-18T21:51:22.753Z,5.49
2018-01-18T21:52:22.734Z,5.48
2018-01-18T21:53:22.735Z,5.52
2018-01-18T21:54:22.701Z,5.64
2018-01-18T21:55:22.668Z,5.55
2018-01-18T21:56:22.665Z,5.55
2018-01-18T21:57:22.658Z,5.55
2018-01-18T21:58:22.615Z,5.68
2018-01-18T21:59:22.609Z,5.63
2018-01-18T22:00:22.581Z,5.74
2018-01-18T22:01:22.561Z,5.73
2018-01-18T22:02:22.570Z,5.74
2018-01-18T22:03:22.545Z,5.70
2018-01-18T22:04:22.500Z,5.82
2018-01-18T22:05:22.490Z,5.74
2018-01-18T22:06:22.468Z,5.74
2018-01-18T22:07:22.471Z,5.71
2018-01-18T22:08:22.423Z,5.75
2018-01-18T22:09:22.404Z,5.88
2018-01-18T22:10:22.388Z,5.82
2018-01-18T22:11:22.369Z,5.85
2018-01-18T22:12:22.356Z,5.81
2018-01-18T22:13:22.321Z,5.78
2018-01-18T22:14:22.308Z,5.74
2018-01-18T22:15:22.285Z,5.73
2018-01-18T22:16:22.298Z,5.67
2018-01-18T22:17:22.276Z,5.73
2018-01-18T22:18:22.237Z,5.68
2018-01-18T22:19:22.235Z,5.68
2018-01-18T22:20:22.199Z,5.68
2018-01-18T22:21:22.177Z,5.66
2018-01-18T22:22:22.158Z,5.70
2018-01-18T22:23:22.135Z,5.57
2018-01-18T22:24:22.129Z,5.66
2018-01-18T22:25:22.110Z,5.64
2018-01-18T22:26:22.071Z,5.68
2018-01-18T22:27:22.065Z,5.70
2018-01-18T22:28:22.047Z,5.57
2018-01-18T22:29:22.019Z,5.49
2018-01-18T22:30:22.000Z,5.70
2018-01-18T22:31:21.981Z,5.60
2018-01-18T22:32:21.964Z,5.55
2018-01-18T22:33:21.936Z,5.67
2018-01-18T22:34:21.920Z,5.57
2018-01-18T22:35:21.900Z,5.63
2018-01-18T22:36:21.885Z,5.53
2018-01-18T22:37:21.853Z,5.57
2018-01-18T22:38:21.846Z,5.55
2018-01-18T22:39:21.829Z,5.60
2018-01-18T22:40:21.800Z,5.55
2018-01-18T22:41:21.781Z,5.52
2018-01-18T22:42:21.768Z,5.40
2018-01-18T22:43:21.742Z,5.35
2018-01-18T22:44:21.724Z,5.34
2018-01-18T22:45:21.714Z,5.30
2018-01-18T22:46:21.691Z,5.28
2018-01-18T22:47:21.679Z,5.40
2018-01-18T22:48:21.647Z,5.22
2018-01-18T22:49:21.656Z,5.19
2018-01-18T22:50:21.611Z,5.12
2018-01-18T22:51:21.590Z,5.27
2018-01-18T22:52:21.565Z,5.27
2018-01-18T22:53:21.570Z,5.27
2018-01-18T22:54:21.551Z,5.17
2018-01-18T22:55:21.513Z,5.14
2018-01-18T22:56:21.493Z,5.14
2018-01-18T22:57:21.477Z,5.17
2018-01-18T22:58:21.455Z,5.14
2018-01-18T22:59:21.433Z,5.05
2018-01-18T23:00:21.410Z,5.16
2018-01-18T23:01:21.420Z,4.98
2018-01-18T23:02:21.379Z,5.17
2018-01-18T23:03:21.353Z,5.10
2018-01-18T23:04:21.353Z,4.99
2018-01-18T23:05:21.316Z,5.01
2018-01-18T23:06:21.295Z,4.98
2018-01-18T23:07:21.280Z,5.01
2018-01-18T23:08:21.253Z,4.91
2018-01-18T23:09:21.242Z,4.88
2018-01-18T23:10:21.213Z,4.89
2018-01-18T23:11:21.213Z,4.88
2018-01-18T23:12:21.206Z,4.83
2018-01-18T23:13:21.155Z,4.84
2018-01-18T23:14:21.132Z,4.84
2018-01-18T23:15:21.113Z,4.76
2018-01-18T23:16:21.098Z,4.73
2018-01-18T23:17:21.088Z,4.84
2018-01-18T23:18:21.064Z,4.75
2018-01-18T23:19:21.041Z,4.65
2018-01-18T23:20:21.031Z,4.62
2018-01-18T23:21:21.004Z,4.64
2018-01-18T23:22:20.990Z,4.75
2018-01-18T23:23:20.958Z,4.58
2018-01-18T23:24:20.938Z,4.59
2018-01-18T23:25:20.926Z,4.62
2018-01-18T23:26:20.916Z,4.67
2018-01-18T23:27:20.900Z,4.52
2018-01-18T23:28:20.865Z,4.57
2018-01-18T23:29:20.838Z,4.67
2018-01-18T23:30:20.868Z,4.62
2018-01-18T23:31:20.803Z,4.61
2018-01-18T23:32:20.787Z,4.55
2018-01-18T23:33:20.758Z,4.52
2018-01-18T23:34:20.742Z,4.59
2018-01-18T23:35:20.720Z,4.55
2018-01-18T23:36:20.694Z,4.54
2018-01-18T23:37:20.678Z,4.44
2018-01-18T23:38:20.671Z,4.50
2018-01-18T23:39:20.643Z,4.39
2018-01-18T23:40:20.618Z,4.36
2018-01-18T23:41:20.599Z,4.40
2018-01-18T23:42:20.586Z,4.37
2018-01-18T23:43:20.561Z,4.32
2018-01-18T23:44:20.541Z,4.19
2018-01-18T23:45:20.519Z,4.14
2018-01-18T23:46:20.497Z,4.22
2018-01-18T23:47:20.484Z,4.15
2018-01-18T23:48:20.467Z,4.08
2018-01-18T23:49:20.442Z,4.15
2018-01-18T23:50:20.464Z,4.07
2018-01-18T23:51:20.397Z,4.08
2018-01-18T23:52:20.378Z,4.07
2018-01-18T23:53:20.361Z,4.01
2018-01-18T23:54:20.342Z,4.01
2018-01-18T23:55:20.322Z,4.00
2018-01-18T23:56:20.297Z,3.94
2018-01-18T23:57:20.291Z,3.96
2018-01-18T23:58:20.263Z,3.97
2018-01-18T23:59:20.232Z,3.97
